Latest Weather Observations for Gove Airport

IDD60801

Issued at 11:35 am CST Thursday 21 August 2014 (issued every 30 minutes, with the page automatically refreshed every 10 minutes)

About weather observations | Map of weather stations | Latest weather observations for NT | Other Formats
Station Details ID: 014508 Name: GOVE AIRPORT Lat: -12.27 Lon: 136.82 Height: 51.6 m
Data from the previous 72 hours. | See also: Recent months at Gove Airport
Date/Time
CST
Temp
°C
App
Temp
°C
Dew
Point
Rel
Hum
%
Delta-T
°C
Wind Press
QNH
hPa
Press
MSL
hPa
Rain
since 9 am
mm
Dir
 
Spd
km/h
Gust
km/h
Spd
kts
Gust
kts
21/11:30am 26.5 21.7 12.8 42 8.0 ENE 30 41 16 22 1015.7 - 0.0
21/11:00am 25.6 21.3 13.1 46 7.3 ESE 28 39 15 21 1016.0 - 0.0
21/10:30am 26.6 21.9 10.8 37 8.9 E 26 41 14 22 1016.1 - 0.0
21/10:00am 26.3 22.0 10.9 38 8.7 ENE 24 32 13 17 1016.2 - 0.0
21/09:30am 26.0 20.8 10.4 37 8.7 ESE 28 41 15 22 1016.2 - 0.0
21/09:19am 25.4 19.5 9.0 35 8.9 ESE 30 43 16 23 1016.3 - 0.0
21/09:00am 25.5 21.9 10.4 38 8.4 ESE 20 24 11 13 1016.3 1016.1 0.0
21/08:30am 24.6 21.6 10.8 42 7.7 ESE 17 20 9 11 1015.9 - 0.0
21/08:00am 21.9 21.2 14.4 62 4.4 NNE 11 15 6 8 1015.5 - 0.0
21/07:30am 17.0 17.5 15.1 88 1.1 SE 6 7 3 4 1015.3 - 0.0
21/07:00am 13.8 13.4 12.5 92 0.7 N 6 7 3 4 1014.9 - 0.0
21/06:30am 13.2 12.8 12.3 94 0.5 N 6 7 3 4 1014.6 - 0.0
21/06:00am 13.5 14.3 12.4 93 0.6 CALM 0 0 0 0 1014.4 1014.1 0.0
21/05:30am 14.0 15.0 13.1 94 0.5 CALM 0 0 0 0 1014.0 - 0.0
21/05:00am 14.5 15.0 12.7 89 1.0 N 2 6 1 3 1013.7 - 0.0
21/04:30am 14.3 14.0 13.4 94 0.5 SE 7 9 4 5 1013.6 - 0.0
21/04:00am 14.7 14.6 13.3 91 0.8 E 6 7 3 4 1013.7 - 0.0
21/03:30am 14.5 14.1 12.9 90 0.9 N 7 7 4 4 1013.7 - 0.0
21/03:00am 15.1 15.1 13.5 90 0.9 SE 6 7 3 4 1013.9 1013.6 0.0
21/02:30am 14.9 14.9 13.5 91 0.8 ESE 6 6 3 3 1014.2 - 0.0
21/02:00am 15.6 15.7 13.8 89 1.0 E 6 7 3 4 1014.4 - 0.0
21/01:30am 16.3 16.3 14.2 87 1.2 SE 7 9 4 5 1014.5 - 0.0
21/01:00am 17.6 17.2 14.1 80 2.0 NNE 9 9 5 5 1014.8 - 0.0
21/12:30am 16.9 16.1 13.9 82 1.7 E 11 13 6 7 1015.2 - 0.0
21/12:00am 17.4 16.7 14.4 82 1.7 NNE 11 13 6 7 1015.4 1015.2 0.0
 
Date/Time
CST
Temp
°C
App
Temp
°C
Dew
Point
Rel
Hum
%
Delta-T
°C
Wind Press
QNH
hPa
Press
MSL
hPa
Rain
since 9 am
mm
Dir
 
Spd
km/h
Gust
km/h
Spd
kts
Gust
kts
20/11:30pm 17.8 17.2 14.7 82 1.8 NE 11 13 6 7 1015.6 - 0.0
20/11:00pm 18.1 17.6 14.8 81 1.9 NNE 11 15 6 8 1015.6 - 0.0
20/10:30pm 17.9 17.3 14.6 81 1.9 NNE 11 13 6 7 1015.8 - 0.0
20/10:00pm 17.9 18.0 14.4 80 2.0 SE 7 9 4 5 1015.8 - 0.0
20/09:30pm 18.1 17.4 14.3 78 2.2 SE 11 11 6 6 1015.9 - 0.0
20/09:00pm 18.7 18.0 14.4 76 2.5 ESE 11 13 6 7 1015.9 1015.7 0.0
20/08:30pm 18.8 18.6 14.7 77 2.4 ESE 9 13 5 7 1015.8 - 0.0
20/08:00pm 18.9 18.8 15.0 78 2.3 NE 9 11 5 6 1015.5 - 0.0
20/07:30pm 19.7 19.8 15.5 77 2.5 NE 9 11 5 6 1015.1 - 0.0
20/07:00pm 20.7 20.4 15.5 72 3.1 ENE 11 15 6 8 1014.6 - 0.0
20/06:30pm 21.5 20.6 15.8 70 3.4 NNE 15 22 8 12 1014.4 - 0.0
20/06:00pm 22.4 21.1 15.8 66 4.0 E 17 24 9 13 1014.1 1013.8 0.0
20/05:30pm 23.3 21.2 15.1 60 4.9 NNE 20 28 11 15 1013.9 - 0.0
20/05:00pm 23.8 20.5 13.9 54 5.8 NE 24 30 13 16 1013.8 - 0.0
20/04:30pm 24.8 21.5 12.9 47 6.9 ESE 22 32 12 17 1013.5 - 0.0
20/04:00pm 25.0 21.2 12.5 45 7.2 NE 24 33 13 18 1013.7 - 0.0
20/03:30pm 25.1 21.8 12.7 46 7.2 S 22 32 12 17 1013.6 - 0.0
20/03:00pm 26.3 23.3 12.7 43 7.9 ENE 20 30 11 16 1013.6 1013.3 0.0
20/02:30pm 26.1 23.1 11.8 41 8.2 SSE 19 30 10 16 1013.9 - 0.0
20/02:00pm 26.2 22.6 11.7 40 8.3 ENE 22 28 12 15 1014.4 - 0.0
20/01:30pm 25.6 22.6 11.8 42 7.9 S 19 26 10 14 1014.8 - 0.0
20/01:00pm 25.9 22.5 11.3 40 8.3 E 20 30 11 16 1015.2 - 0.0
20/12:30pm 26.0 22.0 11.9 41 8.1 NE 24 28 13 15 1015.7 - 0.0
20/12:00pm 25.9 22.2 11.5 40 8.2 ESE 22 32 12 17 1015.9 1015.7 0.0
20/11:30am 25.8 22.4 11.1 39 8.3 S 20 33 11 18 1016.3 - 0.0
20/11:00am 26.0 21.9 10.2 37 8.8 ESE 22 33 12 18 1016.6 - 0.0
20/10:30am 26.3 22.5 9.9 35 9.1 ESE 20 32 11 17 1016.7 - 0.0
20/10:00am 25.5 20.7 8.9 35 9.0 ESE 24 35 13 19 1016.7 - 0.0
20/09:30am 25.0 21.6 11.1 41 7.8 E 20 26 11 14 1016.9 - 0.0
20/09:00am 24.4 21.2 11.9 45 7.1 ESE 20 28 11 15 1016.8 1016.6 0.0
20/08:30am 23.0 21.8 14.1 57 5.2 ENE 13 19 7 10 1016.7 - 0.0
20/08:00am 20.7 20.6 14.9 69 3.4 N 9 11 5 6 1016.6 - 0.0
20/07:30am 16.9 18.6 15.2 90 1.0 CALM 0 0 0 0 1016.2 - 0.0
20/07:00am 14.8 15.9 13.5 92 0.7 CALM 0 0 0 0 1016.2 - 0.0
20/06:30am 14.5 15.5 13.2 92 0.7 CALM 0 0 0 0 1016.0 - 0.0
20/06:00am 14.6 15.6 13.2 91 0.8 CALM 0 0 0 0 1015.6 1015.4 0.0
20/05:30am 14.8 15.9 13.5 92 0.7 CALM 0 0 0 0 1015.1 - 0.0
20/05:00am 14.8 15.9 13.4 91 0.8 CALM 0 0 0 0 1014.9 - 0.0
20/04:30am 15.0 16.1 13.4 90 0.9 CALM 0 0 0 0 1014.5 - 0.0
20/04:00am 14.9 15.9 13.3 90 0.9 CALM 0 0 0 0 1014.6 - 0.0
20/03:30am 14.9 15.9 13.3 90 0.9 CALM 0 0 0 0 1014.7 - 0.0
20/03:00am 14.8 15.8 13.2 90 0.9 CALM 0 0 0 0 1014.8 1014.6 0.0
20/02:30am 14.7 15.6 12.9 89 1.0 CALM 0 0 0 0 1015.1 - 0.0
20/02:00am 14.8 15.7 12.8 88 1.1 CALM 0 6 0 3 1015.3 - 0.0
20/01:30am 15.2 14.8 13.0 87 1.2 S 7 9 4 5 1015.3 - 0.0
20/01:00am 16.6 16.3 13.2 80 1.9 S 7 9 4 5 1015.4 - 0.0
20/12:30am 16.8 16.0 13.0 78 2.1 ENE 9 9 5 5 1015.6 - 0.0
20/12:00am 17.2 16.8 13.1 77 2.3 N 7 9 4 5 1016.0 1015.8 0.0
 
Date/Time
CST
Temp
°C
App
Temp
°C
Dew
Point
Rel
Hum
%
Delta-T
°C
Wind Press
QNH
hPa
Press
MSL
hPa
Rain
since 9 am
mm
Dir
 
Spd
km/h
Gust
km/h
Spd
kts
Gust
kts
19/11:30pm 18.1 17.6 13.7 75 2.5 ESE 9 11 5 6 1016.0 - 0.0
19/11:00pm 18.4 17.9 13.9 75 2.6 NNE 9 11 5 6 1016.2 - 0.0
19/10:30pm 18.4 17.6 13.9 75 2.6 NNE 11 13 6 7 1016.4 - 0.0
19/10:00pm 18.0 17.6 14.0 77 2.3 NE 9 11 5 6 1016.3 - 0.0
19/09:30pm 18.8 18.3 13.7 72 2.9 SSE 9 13 5 7 1016.0 - 0.0
19/09:00pm 19.1 18.4 13.3 69 3.3 SSE 9 13 5 7 1015.9 1015.7 0.0
19/08:30pm 19.2 18.1 13.2 68 3.4 NE 11 13 6 7 1015.6 - 0.0
19/08:00pm 19.3 18.9 14.1 72 3.0 N 9 11 5 6 1015.1 - 0.0
19/07:30pm 19.9 19.2 14.2 69 3.3 NE 11 13 6 7 1014.6 - 0.0
19/07:00pm 20.6 19.4 12.9 61 4.4 E 11 13 6 7 1014.5 - 0.0
19/06:30pm 21.6 19.5 12.4 55 5.2 E 15 22 8 12 1014.3 - 0.0
19/06:00pm 22.5 19.7 12.5 53 5.7 SE 19 24 10 13 1014.2 1013.9 0.0
19/05:30pm 23.3 19.3 11.8 48 6.5 E 24 32 13 17 1014.1 - 0.0
19/05:00pm 24.0 21.3 11.8 46 6.9 SSE 17 22 9 12 1014.1 - 0.0
19/04:30pm 24.5 20.4 11.4 43 7.4 E 24 30 13 16 1013.9 - 0.0
19/04:00pm 24.5 21.2 11.6 44 7.3 SSE 20 30 11 16 1014.0 - 0.0
19/03:30pm 25.1 20.6 11.3 42 7.8 ESE 26 33 14 18 1014.0 - 0.0
19/03:00pm 25.2 20.5 10.5 39 8.2 E 26 33 14 18 1014.3 1014.0 0.0
19/02:30pm 25.2 20.4 10.3 39 8.3 ESE 26 32 14 17 1014.6 - 0.0
19/02:00pm 26.0 21.2 10.4 37 8.7 E 26 41 14 22 1015.0 - 0.0
19/01:30pm 26.0 21.0 9.4 35 9.1 ESE 26 33 14 18 1015.5 - 0.0
19/01:00pm 26.1 21.0 9.3 34 9.2 ESE 26 35 14 19 1015.8 - 0.0
19/12:30pm 25.4 21.1 9.5 36 8.7 SSE 22 32 12 17 1016.3 - 0.0
19/12:00pm 25.6 20.6 9.6 36 8.8 ESE 26 35 14 19 1016.6 1016.4 0.0
19/11:30am 25.6 21.4 9.6 36 8.8 SSE 22 33 12 18 1017.2 - 0.0
19/11:00am 25.1 19.8 9.8 38 8.4 ESE 28 41 15 22 1017.6 - 0.0
19/10:41am 25.8 20.0 9.4 35 9.0 ESE 30 48 16 26 1017.6 - 0.0
19/10:30am 24.9 19.2 9.8 38 8.3 ESE 30 44 16 24 1017.7 - 0.0
19/10:00am 25.2 19.7 9.2 36 8.7 SE 28 43 15 23 1017.9 - 0.0
19/09:30am 24.7 19.1 8.7 36 8.6 SE 28 43 15 23 1018.0 - 0.0
19/09:00am 24.3 19.3 9.4 38 8.1 SE 26 35 14 19 1018.2 1018.0 0.0
19/08:30am 23.7 19.0 9.3 40 7.8 SE 24 35 13 19 1017.9 - 0.0
19/08:00am 22.7 18.5 9.6 43 7.1 SE 22 35 12 19 1017.6 - 0.0
19/07:30am 21.7 18.5 10.1 47 6.3 SE 17 26 9 14 1017.2 - 0.0
19/07:00am 20.4 17.7 10.2 52 5.5 SE 15 20 8 11 1016.9 - 0.0
19/06:30am 19.8 16.9 9.7 52 5.4 SE 15 19 8 10 1016.5 - 0.0
19/06:00am 19.2 16.7 9.8 54 5.0 E 13 17 7 9 1016.2 1016.0 0.0
19/05:30am 19.2 16.6 9.4 53 5.2 ESE 13 19 7 10 1015.9 - 0.0
19/05:00am 18.9 16.2 9.0 52 5.2 ESE 13 17 7 9 1015.7 - 0.0
19/04:30am 17.8 15.7 9.9 60 4.2 ESE 11 17 6 9 1015.5 - 0.0
19/04:00am 17.5 15.7 10.8 65 3.6 E 11 17 6 9 1015.5 - 0.0
19/03:30am 17.9 16.8 11.9 68 3.3 SSE 9 13 5 7 1015.6 - 0.0
19/03:00am 18.4 16.9 11.9 66 3.6 SE 11 15 6 8 1015.5 1015.3 0.0
19/02:30am 18.8 17.6 11.7 63 3.9 SSE 9 13 5 7 1015.7 - 0.0
19/02:00am 19.2 17.9 12.4 64 3.8 S 11 17 6 9 1015.7 - 0.0
19/01:30am 19.4 18.5 13.8 70 3.2 SSE 11 15 6 8 1015.9 - 0.0
19/01:00am 19.6 18.4 14.1 70 3.2 SSE 13 19 7 10 1016.1 - 0.0
19/12:30am 19.9 18.3 14.0 69 3.4 SSE 15 20 8 11 1016.4 - 0.0
19/12:00am 20.1 19.0 14.2 69 3.4 SSE 13 20 7 11 1016.5 1016.3 0.0
 
Date/Time
CST
Temp
°C
App
Temp
°C
Dew
Point
Rel
Hum
%
Delta-T
°C
Wind Press
QNH
hPa
Press
MSL
hPa
Rain
since 9 am
mm
Dir
 
Spd
km/h
Gust
km/h
Spd
kts
Gust
kts
18/11:30pm 19.9 18.8 14.2 69 3.3 ESE 13 20 7 11 1016.6 - 0.0
18/11:00pm 19.8 18.6 14.1 69 3.3 ESE 13 17 7 9 1016.6 - 0.0
18/10:30pm 19.8 19.1 14.3 70 3.2 E 11 17 6 9 1016.6 - 0.0
18/10:00pm 20.0 19.2 14.1 69 3.4 E 11 17 6 9 1016.5 - 0.0
18/09:30pm 20.3 19.1 14.1 67 3.6 E 13 19 7 10 1016.5 - 0.0
18/09:00pm 20.2 19.4 14.0 67 3.6 ESE 11 15 6 8 1016.3 1016.1 0.0
18/08:30pm 20.2 19.0 14.0 67 3.6 E 13 17 7 9 1016.2 - 0.0
18/08:00pm 20.1 19.4 14.2 69 3.4 ESE 11 15 6 8 1016.0 - 0.0
18/07:30pm 20.6 19.8 14.0 66 3.8 E 11 15 6 8 1015.9 - 0.0
18/07:00pm 21.2 19.9 13.8 62 4.3 E 13 17 7 9 1015.7 - 0.0
18/06:30pm 21.8 20.5 13.7 60 4.7 E 13 20 7 11 1015.4 - 0.0
18/06:00pm 22.6 20.9 13.7 57 5.2 E 15 19 8 10 1015.3 1015.1 0.0
18/05:30pm 23.4 19.9 13.4 53 5.8 SE 24 32 13 17 1015.2 - 0.0
18/05:00pm 23.8 20.2 13.1 51 6.2 ESE 24 33 13 18 1015.0 - 0.0
18/04:30pm 24.3 21.0 12.9 49 6.6 SE 22 35 12 19 1014.8 - 0.0
18/04:00pm 25.4 21.5 12.2 43 7.6 SE 24 33 13 18 1014.8 - 0.0
18/03:30pm 25.7 22.2 12.1 42 7.8 SE 22 32 12 17 1014.8 - 0.0
18/03:00pm 25.7 21.6 11.4 40 8.1 SE 24 35 13 19 1015.1 1014.9 0.0
18/02:42pm 25.1 20.1 11.1 41 7.9 SE 28 46 15 25 1015.1 - 0.0
18/02:30pm 25.4 21.2 11.0 40 8.1 SE 24 35 13 19 1015.2 - 0.0
18/02:00pm 25.4 20.4 10.8 40 8.2 ESE 28 35 15 19 1015.4 - 0.0
18/01:30pm 26.1 21.1 10.8 38 8.6 ESE 28 39 15 21 1015.6 - 0.0
18/01:00pm 25.7 21.9 11.0 39 8.3 S 22 32 12 17 1015.9 - 0.0
18/12:30pm 25.9 20.3 10.3 37 8.7 SE 30 50 16 27 1016.4 - 0.0
18/12:22pm 25.7 19.7 10.2 37 8.6 ESE 32 50 17 27 1016.4 - 0.0
18/12:00pm 25.9 20.4 10.5 38 8.6 SE 30 41 16 22 1016.7 1016.5 0.0

Other Formats:

Comma delimited format used in spreadsheet applications
http://www.bom.gov.au/fwo/IDD60801/IDD60801.94150.axf

JavaScript Object Notation format (JSON) in row-major order
http://www.bom.gov.au/fwo/IDD60801/IDD60801.94150.json